createdAt,value
2023-05-17T00:00:04.807Z,35.45
2023-05-17T00:00:34.841Z,35.48
2023-05-17T00:01:04.897Z,35.50
2023-05-17T00:01:34.951Z,35.47
2023-05-17T00:02:05.006Z,35.47
2023-05-17T00:02:35.111Z,35.54
2023-05-17T00:03:05.107Z,35.50
2023-05-17T00:03:35.107Z,35.49
2023-05-17T00:04:05.228Z,35.50
2023-05-17T00:04:35.380Z,35.50
2023-05-17T00:05:05.353Z,35.57
2023-05-17T00:05:35.435Z,35.55
2023-05-17T00:06:05.549Z,35.49
2023-05-17T00:06:35.676Z,35.53
2023-05-17T00:07:05.640Z,35.54
2023-05-17T00:07:35.730Z,35.49
2023-05-17T00:08:05.771Z,35.50
2023-05-17T00:08:35.838Z,35.48
2023-05-17T00:09:05.923Z,35.44
2023-05-17T00:09:36.010Z,35.45
2023-05-17T00:10:06.094Z,35.44
2023-05-17T00:10:36.188Z,35.46
2023-05-17T00:11:06.266Z,35.42
2023-05-17T00:11:36.365Z,35.42
2023-05-17T00:12:06.441Z,35.38
2023-05-17T00:12:36.533Z,35.39
2023-05-17T00:13:06.636Z,35.42
2023-05-17T00:13:36.722Z,35.41
2023-05-17T00:14:06.909Z,35.44
2023-05-17T00:14:36.852Z,35.40
2023-05-17T00:15:06.954Z,35.38
2023-05-17T00:15:37.057Z,35.38
2023-05-17T00:16:07.145Z,35.44
2023-05-17T00:16:37.223Z,35.44
2023-05-17T00:17:07.311Z,35.38
2023-05-17T00:17:37.431Z,35.44
2023-05-17T00:18:07.450Z,35.42
2023-05-17T00:18:37.637Z,35.39
2023-05-17T00:19:07.628Z,35.50
2023-05-17T00:19:37.550Z,35.46
2023-05-17T00:20:07.534Z,35.46
2023-05-17T00:20:37.622Z,35.49
2023-05-17T00:21:07.709Z,35.47
2023-05-17T00:21:37.792Z,35.51
2023-05-17T00:22:07.873Z,35.49
2023-05-17T00:22:37.952Z,35.43
2023-05-17T00:23:08.031Z,35.49
2023-05-17T00:23:38.125Z,35.47
2023-05-17T00:24:08.212Z,35.50
2023-05-17T00:24:38.307Z,35.45
2023-05-17T00:25:08.387Z,35.38
2023-05-17T00:25:38.486Z,35.39
2023-05-17T00:26:08.584Z,35.43
2023-05-17T00:26:38.656Z,35.43
2023-05-17T00:27:08.740Z,35.43
2023-05-17T00:27:38.837Z,35.46
2023-05-17T00:28:08.814Z,35.46
2023-05-17T00:28:38.902Z,35.42
2023-05-17T00:29:09.114Z,35.44
2023-05-17T00:29:39.062Z,35.41
2023-05-17T00:30:09.160Z,35.38
2023-05-17T00:30:39.219Z,35.38
2023-05-17T00:31:09.312Z,35.31
2023-05-17T00:31:39.406Z,35.34
2023-05-17T00:32:09.511Z,35.34
2023-05-17T00:32:39.531Z,35.34
2023-05-17T00:33:09.674Z,35.37
2023-05-17T00:33:39.634Z,35.34
2023-05-17T00:34:09.733Z,35.33
2023-05-17T00:34:39.855Z,35.37
2023-05-17T00:35:09.873Z,35.37
2023-05-17T00:35:39.869Z,35.35
2023-05-17T00:36:09.955Z,35.31
2023-05-17T00:36:40.009Z,35.31
2023-05-17T00:37:10.092Z,35.38
2023-05-17T00:37:40.187Z,35.34
2023-05-17T00:38:10.264Z,35.38
2023-05-17T00:38:40.357Z,35.32
2023-05-17T00:39:10.450Z,35.35
2023-05-17T00:39:40.541Z,35.37
2023-05-17T00:40:10.636Z,35.35
2023-05-17T00:40:40.710Z,35.34
2023-05-17T00:41:10.781Z,35.35
2023-05-17T00:41:40.876Z,35.33
2023-05-17T00:42:10.962Z,35.38
2023-05-17T00:42:41.040Z,35.28
2023-05-17T00:43:11.125Z,35.34
2023-05-17T00:43:41.237Z,35.33
2023-05-17T00:44:11.442Z,35.38
2023-05-17T00:44:41.392Z,35.32
2023-05-17T00:45:11.468Z,35.27
2023-05-17T00:45:41.564Z,35.29
2023-05-17T00:46:11.649Z,35.34
2023-05-17T00:46:41.777Z,35.31
2023-05-17T00:47:11.788Z,35.32
2023-05-17T00:48:11.931Z,35.39
2023-05-17T00:48:41.960Z,35.40
2023-05-17T00:49:11.845Z,35.51
2023-05-17T00:49:41.931Z,35.45
2023-05-17T00:50:12.009Z,35.42
2023-05-17T00:50:42.104Z,35.52
2023-05-17T00:51:12.174Z,35.52
2023-05-17T00:51:42.263Z,35.52
2023-05-17T00:52:12.339Z,35.57
2023-05-17T00:52:42.397Z,35.52
2023-05-17T00:53:12.434Z,35.54
2023-05-17T00:53:42.478Z,35.56
2023-05-17T00:54:12.527Z,35.52
2023-05-17T00:54:42.579Z,35.50
2023-05-17T00:55:12.639Z,35.53
2023-05-17T00:55:42.657Z,35.50
2023-05-17T00:56:12.733Z,35.53
2023-05-17T00:56:42.766Z,35.50
2023-05-17T00:57:12.821Z,35.52
2023-05-17T00:57:42.861Z,35.56
2023-05-17T00:58:12.901Z,35.58
2023-05-17T00:58:42.951Z,35.57
2023-05-17T00:59:12.985Z,35.60
2023-05-17T00:59:43.129Z,35.62
2023-05-17T01:00:13.020Z,35.60
2023-05-17T01:01:13.073Z,35.57
2023-05-17T01:01:43.154Z,35.62
2023-05-17T01:02:13.235Z,35.62
2023-05-17T01:02:43.365Z,35.70
2023-05-17T01:03:13.502Z,35.70
2023-05-17T01:03:43.549Z,35.70
2023-05-17T01:04:13.756Z,35.70
2023-05-17T01:04:43.518Z,35.66
2023-05-17T01:05:13.596Z,35.64
2023-05-17T01:05:43.691Z,35.62
2023-05-17T01:06:13.776Z,35.65
2023-05-17T01:06:43.880Z,35.61
2023-05-17T01:07:13.845Z,35.55
2023-05-17T01:07:43.918Z,35.59
2023-05-17T01:08:14.020Z,35.60
2023-05-17T01:08:44.092Z,35.59
2023-05-17T01:09:14.191Z,35.54
2023-05-17T01:09:44.276Z,35.62
2023-05-17T01:10:14.362Z,35.60
2023-05-17T01:10:44.441Z,35.61
2023-05-17T01:11:14.532Z,35.58
2023-05-17T01:11:44.645Z,35.58
2023-05-17T01:12:14.701Z,35.57
2023-05-17T01:12:44.796Z,35.57
2023-05-17T01:13:14.871Z,35.49
2023-05-17T01:13:44.961Z,35.50
2023-05-17T01:14:15.041Z,35.57
2023-05-17T01:14:45.223Z,35.52
2023-05-17T01:15:15.164Z,35.53
2023-05-17T01:15:45.269Z,35.54
2023-05-17T01:16:15.353Z,35.55
2023-05-17T01:16:45.435Z,35.58
2023-05-17T01:17:15.544Z,35.49
2023-05-17T01:17:45.606Z,35.47
2023-05-17T01:18:15.675Z,35.50
2023-05-17T01:18:45.764Z,35.45
2023-05-17T01:19:15.910Z,35.52
2023-05-17T01:19:45.836Z,35.46
2023-05-17T01:20:15.918Z,35.47
2023-05-17T01:20:45.884Z,35.51
2023-05-17T01:21:15.977Z,35.47
2023-05-17T01:21:46.010Z,35.54
2023-05-17T01:22:16.099Z,35.50
2023-05-17T01:22:46.163Z,35.47
2023-05-17T01:23:16.255Z,35.50
2023-05-17T01:23:46.361Z,35.52
2023-05-17T01:24:16.439Z,35.50
2023-05-17T01:24:46.510Z,35.53
2023-05-17T01:25:16.606Z,35.46
2023-05-17T01:25:46.691Z,35.52
2023-05-17T01:26:16.781Z,35.54
2023-05-17T01:26:46.854Z,35.47
2023-05-17T01:27:16.934Z,35.50
2023-05-17T01:27:47.026Z,35.47
2023-05-17T01:28:17.129Z,35.45
2023-05-17T01:28:47.195Z,35.49
2023-05-17T01:29:17.293Z,35.44
2023-05-17T01:29:47.509Z,35.47
2023-05-17T01:30:17.529Z,35.48
2023-05-17T01:30:47.529Z,35.47
2023-05-17T01:31:17.597Z,35.40
2023-05-17T01:31:47.681Z,35.40
2023-05-17T01:32:17.770Z,35.43
2023-05-17T01:32:47.917Z,35.35
2023-05-17T01:33:18.030Z,35.42
2023-05-17T01:33:48.121Z,35.40
2023-05-17T01:34:18.037Z,35.39
2023-05-17T01:34:48.119Z,35.44
2023-05-17T01:35:18.203Z,35.44
2023-05-17T01:35:48.286Z,35.38
2023-05-17T01:36:18.357Z,35.39
2023-05-17T01:36:48.435Z,35.40
2023-05-17T01:37:18.538Z,35.36
2023-05-17T01:37:48.616Z,35.39
2023-05-17T01:38:18.713Z,35.35
2023-05-17T01:38:48.794Z,35.35
2023-05-17T01:39:18.903Z,35.38
2023-05-17T01:39:48.980Z,35.38
2023-05-17T01:40:19.062Z,35.36
2023-05-17T01:40:49.155Z,35.36
2023-05-17T01:41:19.235Z,35.32
2023-05-17T01:41:49.319Z,35.39
2023-05-17T01:42:19.401Z,35.37
2023-05-17T01:42:49.477Z,35.40
2023-05-17T01:43:19.565Z,35.41
2023-05-17T01:43:49.660Z,35.48
2023-05-17T01:44:19.739Z,35.56
2023-05-17T01:44:49.871Z,35.60
2023-05-17T01:45:19.837Z,35.62
2023-05-17T01:45:49.924Z,35.57
2023-05-17T01:46:20.023Z,35.61
2023-05-17T01:46:50.088Z,35.65
2023-05-17T01:47:20.171Z,35.65
2023-05-17T01:47:50.292Z,35.66
2023-05-17T01:48:20.398Z,35.65
2023-05-17T01:48:50.509Z,35.62
2023-05-17T01:49:20.353Z,35.62
2023-05-17T01:49:50.434Z,35.59
2023-05-17T01:50:20.524Z,35.61
2023-05-17T01:50:50.597Z,35.59
2023-05-17T01:51:20.679Z,35.62
2023-05-17T01:51:50.766Z,35.57
2023-05-17T01:52:20.809Z,35.59
2023-05-17T01:52:50.881Z,35.62
2023-05-17T01:53:20.931Z,35.61
2023-05-17T01:53:50.975Z,35.69
2023-05-17T01:54:21.018Z,35.65
2023-05-17T01:54:51.050Z,35.65
2023-05-17T01:55:21.084Z,35.68
2023-05-17T01:55:51.136Z,35.70
2023-05-17T01:56:21.183Z,35.69
2023-05-17T01:56:51.213Z,35.69
2023-05-17T01:57:21.258Z,35.73
2023-05-17T01:57:51.310Z,35.74
2023-05-17T01:58:21.369Z,35.75
2023-05-17T01:58:51.404Z,35.74
2023-05-17T01:59:21.446Z,35.78
2023-05-17T01:59:51.480Z,35.71
2023-05-17T02:00:21.628Z,35.78
2023-05-17T02:00:51.632Z,35.74
2023-05-17T02:01:21.675Z,35.74
2023-05-17T02:01:51.702Z,35.77
2023-05-17T02:02:21.767Z,35.76
2023-05-17T02:02:51.802Z,35.80
2023-05-17T02:03:21.835Z,35.83
2023-05-17T02:03:51.821Z,35.83
2023-05-17T02:04:21.961Z,35.78
2023-05-17T02:04:51.993Z,35.83
2023-05-17T02:05:22.081Z,35.75
2023-05-17T02:05:52.147Z,35.72
2023-05-17T02:06:22.231Z,35.67
2023-05-17T02:06:52.334Z,35.66
2023-05-17T02:07:22.429Z,35.74
2023-05-17T02:07:52.535Z,35.68
2023-05-17T02:08:22.599Z,35.68
2023-05-17T02:08:52.704Z,35.66
2023-05-17T02:09:22.789Z,35.64
2023-05-17T02:09:52.859Z,35.71
2023-05-17T02:10:22.942Z,35.66
2023-05-17T02:10:53.028Z,35.67
2023-05-17T02:11:23.114Z,35.67
2023-05-17T02:11:53.196Z,35.63
2023-05-17T02:12:23.286Z,35.62
2023-05-17T02:12:53.375Z,35.62
2023-05-17T02:13:23.454Z,35.68
2023-05-17T02:13:53.521Z,35.63
2023-05-17T02:14:23.618Z,35.64
2023-05-17T02:14:53.695Z,35.65
2023-05-17T02:15:23.877Z,35.62
2023-05-17T02:15:53.831Z,35.60
2023-05-17T02:16:23.913Z,35.63
2023-05-17T02:16:54.006Z,35.60
2023-05-17T02:17:24.103Z,35.67
2023-05-17T02:17:54.244Z,35.59
2023-05-17T02:18:24.257Z,35.61
2023-05-17T02:18:54.299Z,35.59
2023-05-17T02:19:24.320Z,35.62
2023-05-17T02:19:54.320Z,35.59
2023-05-17T02:20:24.399Z,35.57
2023-05-17T02:20:54.488Z,35.63
2023-05-17T02:21:24.579Z,35.61
2023-05-17T02:21:54.668Z,35.57
2023-05-17T02:22:24.729Z,35.56
2023-05-17T02:22:54.811Z,35.62
2023-05-17T02:23:24.890Z,35.60
2023-05-17T02:23:54.972Z,35.59
2023-05-17T02:24:25.058Z,35.59
2023-05-17T02:24:55.144Z,35.64
2023-05-17T02:25:25.274Z,35.57
2023-05-17T02:25:55.234Z,35.61
2023-05-17T02:26:25.335Z,35.64
2023-05-17T02:26:55.408Z,35.54
2023-05-17T02:27:25.494Z,35.60
2023-05-17T02:27:55.572Z,35.60
2023-05-17T02:28:25.643Z,35.62
2023-05-17T02:28:55.744Z,35.60
2023-05-17T02:29:25.814Z,35.60
2023-05-17T02:29:55.892Z,35.56
2023-05-17T02:30:26.013Z,35.55
2023-05-17T02:30:56.078Z,35.55
2023-05-17T02:31:26.168Z,35.57
2023-05-17T02:31:56.248Z,35.55
2023-05-17T02:32:26.368Z,35.53
2023-05-17T02:32:56.413Z,35.52
2023-05-17T02:33:26.496Z,35.57
2023-05-17T02:33:56.589Z,35.54
2023-05-17T02:34:26.681Z,35.54
2023-05-17T02:34:56.672Z,35.51
2023-05-17T02:35:26.876Z,35.56
2023-05-17T02:35:56.757Z,35.57
2023-05-17T02:36:26.841Z,35.55
2023-05-17T02:36:56.921Z,35.60
2023-05-17T02:37:26.993Z,35.62
2023-05-17T02:37:57.064Z,35.67
2023-05-17T02:38:27.152Z,35.71
2023-05-17T02:38:57.230Z,35.71
2023-05-17T02:39:27.333Z,35.75
2023-05-17T02:39:57.421Z,35.78
2023-05-17T02:40:27.503Z,35.78
2023-05-17T02:40:57.579Z,35.74
2023-05-17T02:41:27.658Z,35.79
2023-05-17T02:41:57.748Z,35.74
2023-05-17T02:42:27.827Z,35.69
2023-05-17T02:42:57.837Z,35.71
2023-05-17T02:43:27.915Z,35.69
2023-05-17T02:43:57.993Z,35.69
2023-05-17T02:44:28.098Z,35.71
2023-05-17T02:44:58.178Z,35.71
2023-05-17T02:45:28.464Z,35.75
2023-05-17T02:45:58.256Z,35.74
2023-05-17T02:46:28.354Z,35.75
2023-05-17T02:46:58.466Z,35.79
2023-05-17T02:47:28.653Z,35.81
2023-05-17T02:47:58.555Z,35.76
2023-05-17T02:48:28.648Z,35.83
2023-05-17T02:48:58.767Z,35.83
2023-05-17T02:49:28.739Z,35.86
2023-05-17T02:49:58.818Z,35.83
2023-05-17T02:50:28.903Z,35.84
2023-05-17T02:50:58.996Z,35.86
2023-05-17T02:51:29.064Z,35.88
2023-05-17T02:51:59.131Z,35.84
2023-05-17T02:52:29.184Z,35.88
2023-05-17T02:52:59.230Z,35.86
2023-05-17T02:53:29.275Z,35.84
2023-05-17T02:53:59.411Z,35.82
2023-05-17T02:54:29.339Z,35.83
2023-05-17T02:54:59.377Z,35.86
2023-05-17T02:55:29.672Z,35.88
2023-05-17T02:55:59.414Z,35.82
2023-05-17T02:56:29.452Z,35.87
2023-05-17T02:56:59.492Z,35.78
2023-05-17T02:57:29.532Z,35.82
2023-05-17T02:57:59.562Z,35.81
2023-05-17T02:58:29.626Z,35.79
2023-05-17T02:58:59.674Z,35.82
2023-05-17T02:59:29.717Z,35.78
2023-05-17T02:59:59.752Z,35.78
2023-05-17T03:00:30.018Z,35.79
2023-05-17T03:00:59.842Z,35.78
2023-05-17T03:01:59.876Z,35.76
2023-05-17T03:02:30.021Z,35.81
2023-05-17T03:03:00.114Z,35.81
2023-05-17T03:03:30.327Z,35.82
2023-05-17T03:04:00.263Z,35.75
2023-05-17T03:04:30.227Z,35.78
2023-05-17T03:05:00.195Z,35.80
2023-05-17T03:05:30.428Z,35.78
2023-05-17T03:06:00.328Z,35.83
2023-05-17T03:06:30.405Z,35.82
2023-05-17T03:07:00.495Z,35.76
2023-05-17T03:07:30.586Z,35.77
2023-05-17T03:08:00.688Z,35.73
2023-05-17T03:08:30.782Z,35.73
2023-05-17T03:09:00.865Z,35.76
2023-05-17T03:09:30.950Z,35.78
2023-05-17T03:10:01.010Z,35.69
2023-05-17T03:10:31.104Z,35.67
2023-05-17T03:11:01.197Z,35.74
2023-05-17T03:11:31.279Z,35.71
2023-05-17T03:12:01.362Z,35.75
2023-05-17T03:12:31.475Z,35.71
2023-05-17T03:13:01.552Z,35.76
2023-05-17T03:13:31.614Z,35.80
2023-05-17T03:14:01.704Z,35.80
2023-05-17T03:14:31.795Z,35.77
2023-05-17T03:15:01.875Z,35.84
2023-05-17T03:15:32.052Z,35.80
2023-05-17T03:16:02.040Z,35.82
2023-05-17T03:16:32.087Z,35.85
2023-05-17T03:17:02.190Z,35.81
2023-05-17T03:17:32.414Z,35.81
2023-05-17T03:18:02.429Z,35.85
2023-05-17T03:18:32.593Z,35.85
2023-05-17T03:19:02.718Z,35.81
2023-05-17T03:19:32.634Z,35.80
2023-05-17T03:20:02.642Z,35.81
2023-05-17T03:20:32.742Z,35.81
2023-05-17T03:21:02.814Z,35.82
2023-05-17T03:21:32.903Z,35.83
2023-05-17T03:22:03.000Z,35.80
2023-05-17T03:22:33.085Z,35.85
2023-05-17T03:23:03.177Z,35.89
2023-05-17T03:23:33.262Z,35.84
2023-05-17T03:24:03.353Z,35.81
2023-05-17T03:24:33.439Z,35.81
2023-05-17T03:25:03.513Z,35.76
2023-05-17T03:25:33.587Z,35.76
2023-05-17T03:26:03.685Z,35.72
2023-05-17T03:26:33.772Z,35.73
2023-05-17T03:27:03.888Z,35.68
2023-05-17T03:27:33.926Z,35.69
2023-05-17T03:28:03.899Z,35.64
2023-05-17T03:28:33.979Z,35.64
2023-05-17T03:29:04.057Z,35.63
2023-05-17T03:29:34.130Z,35.63
2023-05-17T03:30:04.212Z,35.63
2023-05-17T03:30:34.434Z,35.63
2023-05-17T03:31:04.345Z,35.53
2023-05-17T03:32:04.360Z,35.61
2023-05-17T03:32:34.481Z,35.60
2023-05-17T03:33:04.646Z,35.63
2023-05-17T03:33:34.697Z,35.67
2023-05-17T03:34:04.653Z,35.61
2023-05-17T03:34:34.657Z,35.62
2023-05-17T03:35:04.739Z,35.64
2023-05-17T03:35:34.847Z,35.61
2023-05-17T03:36:04.928Z,35.61
2023-05-17T03:36:35.010Z,35.65
2023-05-17T03:37:05.093Z,35.65
2023-05-17T03:37:35.177Z,35.66
2023-05-17T03:38:05.247Z,35.62
2023-05-17T03:38:35.330Z,35.56
2023-05-17T03:39:05.425Z,35.56
2023-05-17T03:39:35.501Z,35.50
2023-05-17T03:40:05.571Z,35.51
2023-05-17T03:40:35.672Z,35.52
2023-05-17T03:41:05.781Z,35.50
2023-05-17T03:41:35.852Z,35.51
2023-05-17T03:42:05.954Z,35.55
2023-05-17T03:42:36.038Z,35.49
2023-05-17T03:43:06.127Z,35.47
2023-05-17T03:43:36.211Z,35.48
2023-05-17T03:44:06.296Z,35.40
2023-05-17T03:44:36.373Z,35.41
2023-05-17T03:45:06.479Z,35.41
2023-05-17T03:45:36.850Z,35.33
2023-05-17T03:46:06.670Z,35.39
2023-05-17T03:47:06.812Z,35.27
2023-05-17T03:47:36.930Z,35.22
2023-05-17T03:48:07.020Z,35.28
2023-05-17T03:48:37.007Z,35.25
2023-05-17T03:49:07.213Z,35.27
2023-05-17T03:49:37.196Z,35.20
2023-05-17T03:50:07.301Z,35.19
2023-05-17T03:50:37.370Z,35.21
2023-05-17T03:51:07.452Z,35.18
2023-05-17T03:51:37.548Z,35.21
2023-05-17T03:52:07.600Z,35.21
2023-05-17T03:52:37.636Z,35.17
2023-05-17T03:53:07.685Z,35.20
2023-05-17T03:53:37.726Z,35.13
2023-05-17T03:54:07.782Z,35.07
2023-05-17T03:54:37.831Z,35.06
2023-05-17T03:55:07.886Z,35.05
2023-05-17T03:55:37.956Z,35.01
2023-05-17T03:56:07.990Z,34.98
2023-05-17T03:56:38.037Z,35.00
2023-05-17T03:57:08.071Z,34.97
2023-05-17T03:57:38.101Z,35.02
2023-05-17T03:58:08.147Z,34.91
2023-05-17T03:58:38.215Z,34.91
2023-05-17T03:59:08.241Z,34.91
2023-05-17T03:59:38.278Z,34.84
2023-05-17T04:00:08.319Z,34.94
2023-05-17T04:00:38.391Z,34.91
2023-05-17T04:01:08.552Z,34.90
2023-05-17T04:01:38.461Z,34.96
2023-05-17T04:02:38.615Z,34.90
2023-05-17T04:03:08.719Z,34.89
2023-05-17T04:03:38.714Z,34.90
2023-05-17T04:04:08.791Z,34.94
2023-05-17T04:04:38.784Z,34.94
2023-05-17T04:05:08.883Z,34.92
2023-05-17T04:05:38.871Z,34.98
2023-05-17T04:06:08.956Z,35.05
2023-05-17T04:06:39.035Z,35.03
2023-05-17T04:07:09.106Z,35.02
2023-05-17T04:07:39.186Z,34.99
2023-05-17T04:08:09.291Z,35.01
2023-05-17T04:08:39.388Z,34.94
2023-05-17T04:09:09.474Z,34.90
2023-05-17T04:09:39.547Z,34.87
2023-05-17T04:10:09.627Z,34.75
2023-05-17T04:10:39.714Z,34.70
2023-05-17T04:11:09.821Z,34.68
2023-05-17T04:11:39.897Z,34.76
2023-05-17T04:12:09.982Z,34.79
2023-05-17T04:12:40.066Z,34.86
2023-05-17T04:13:10.193Z,34.90
2023-05-17T04:13:40.147Z,34.97
2023-05-17T04:14:10.228Z,34.90
2023-05-17T04:14:40.309Z,34.91
2023-05-17T04:15:10.396Z,34.95
2023-05-17T04:15:40.482Z,34.94
2023-05-17T04:16:10.832Z,34.97
2023-05-17T04:16:40.658Z,34.95
2023-05-17T04:17:10.736Z,35.00
2023-05-17T04:17:40.909Z,35.06
2023-05-17T04:18:11.032Z,35.04
2023-05-17T04:18:41.090Z,35.13
2023-05-17T04:19:11.114Z,35.11
2023-05-17T04:19:41.160Z,35.10
2023-05-17T04:20:11.212Z,35.14
2023-05-17T04:20:41.291Z,35.25
2023-05-17T04:21:11.395Z,35.19
2023-05-17T04:21:41.463Z,35.24
2023-05-17T04:25:12.663Z,35.55
2023-05-17T04:25:42.708Z,35.58
2023-05-17T04:26:12.750Z,35.62
2023-05-17T04:26:42.785Z,35.65
2023-05-17T04:27:12.869Z,35.69
2023-05-17T04:27:42.916Z,35.72
2023-05-17T04:28:12.954Z,35.66
2023-05-17T04:28:42.983Z,35.67
2023-05-17T04:29:13.028Z,35.70
2023-05-17T04:29:43.057Z,35.63
2023-05-17T04:30:13.100Z,35.63
2023-05-17T04:30:43.164Z,35.73
2023-05-17T04:31:13.360Z,35.65
2023-05-17T04:31:43.298Z,35.63
2023-05-17T04:32:43.479Z,35.63
2023-05-17T04:33:14.342Z,35.63
2023-05-17T04:33:43.392Z,35.57
2023-05-17T04:34:13.457Z,35.61
2023-05-17T04:34:43.496Z,35.64
2023-05-17T04:35:13.577Z,35.75
2023-05-17T04:35:43.649Z,35.77
2023-05-17T04:36:13.780Z,35.75
2023-05-17T04:36:43.846Z,35.79
2023-05-17T04:37:13.930Z,35.87
2023-05-17T04:37:44.017Z,35.87
2023-05-17T04:38:14.110Z,35.98
2023-05-17T04:38:44.194Z,36.08
2023-05-17T04:39:14.269Z,36.00
2023-05-17T04:39:44.352Z,36.14
2023-05-17T04:40:14.429Z,36.11
2023-05-17T04:40:44.452Z,36.20
2023-05-17T04:41:14.564Z,36.13
2023-05-17T04:41:44.530Z,36.33
2023-05-17T04:42:14.615Z,36.36
2023-05-17T04:42:44.707Z,36.33
2023-05-17T04:43:14.793Z,36.45
2023-05-17T04:43:44.878Z,36.43
2023-05-17T04:44:14.969Z,36.50
2023-05-17T04:44:45.086Z,36.53
2023-05-17T04:45:15.595Z,36.46
2023-05-17T04:45:45.086Z,36.60
2023-05-17T04:46:15.162Z,36.63
2023-05-17T04:46:45.349Z,36.65
2023-05-17T04:47:15.307Z,36.69
2023-05-17T04:47:45.415Z,36.65
2023-05-17T04:48:15.482Z,36.66
2023-05-17T04:48:45.520Z,36.76
2023-05-17T04:49:15.434Z,36.74
2023-05-17T04:49:45.522Z,36.69
2023-05-17T04:50:15.642Z,36.80
2023-05-17T04:50:45.720Z,36.84
2023-05-17T04:51:15.805Z,36.79
2023-05-17T04:51:45.889Z,36.88
2023-05-17T04:52:18.880Z,36.99
2023-05-17T04:52:46.016Z,36.92
2023-05-17T04:53:46.072Z,36.98
2023-05-17T04:54:16.159Z,36.98
2023-05-17T04:54:46.257Z,36.90
2023-05-17T04:55:16.245Z,36.95
2023-05-17T04:55:46.325Z,36.85
2023-05-17T04:56:16.398Z,36.92
2023-05-17T04:56:46.486Z,36.83
2023-05-17T04:57:16.578Z,36.85
2023-05-17T04:57:46.664Z,36.85
2023-05-17T04:58:16.737Z,36.84
2023-05-17T04:58:46.836Z,36.88
2023-05-17T04:59:16.926Z,36.90
2023-05-17T04:59:47.025Z,36.85
2023-05-17T05:00:17.156Z,36.99
2023-05-17T05:00:47.098Z,36.96
2023-05-17T05:01:17.195Z,37.01
2023-05-17T05:01:47.377Z,37.25
2023-05-17T05:02:17.323Z,37.31
2023-05-17T05:02:47.403Z,37.25
2023-05-17T05:03:17.546Z,37.26
2023-05-17T05:03:47.563Z,37.28
2023-05-17T05:04:17.713Z,37.34
2023-05-17T05:04:47.623Z,37.36
2023-05-17T05:05:17.588Z,37.35
2023-05-17T05:05:47.662Z,37.40
2023-05-17T05:06:17.743Z,37.30
2023-05-17T05:06:47.832Z,37.26
2023-05-17T05:07:17.910Z,37.19
2023-05-17T05:07:47.988Z,37.24
2023-05-17T05:08:18.067Z,37.34
2023-05-17T05:08:48.174Z,37.24
2023-05-17T05:09:18.236Z,37.19
2023-05-17T05:09:48.331Z,37.36
2023-05-17T05:10:18.413Z,37.28
2023-05-17T05:10:48.504Z,37.17
2023-05-17T05:11:18.595Z,37.21
2023-05-17T05:11:48.672Z,36.97
2023-05-17T05:12:18.743Z,36.98
2023-05-17T05:12:48.831Z,36.93
2023-05-17T05:13:18.951Z,36.86
2023-05-17T05:13:49.026Z,36.88
2023-05-17T05:14:19.101Z,36.93
2023-05-17T05:14:49.187Z,36.89
2023-05-17T05:15:19.286Z,36.92
2023-05-17T05:15:49.359Z,36.89
2023-05-17T05:16:19.441Z,36.86
2023-05-17T05:16:49.629Z,36.94
2023-05-17T05:17:19.690Z,36.97
2023-05-17T05:17:49.801Z,36.93
2023-05-17T05:18:19.944Z,37.01
2023-05-17T05:18:50.001Z,37.01
2023-05-17T05:19:49.916Z,36.97
2023-05-17T05:20:19.884Z,36.96
2023-05-17T05:20:49.978Z,36.90
2023-05-17T05:21:19.964Z,36.88
2023-05-17T05:21:50.063Z,36.94
2023-05-17T05:22:20.142Z,36.99
2023-05-17T05:22:50.247Z,37.01
2023-05-17T05:23:20.354Z,37.03
2023-05-17T05:23:50.333Z,36.97
2023-05-17T05:24:50.385Z,37.02
2023-05-17T05:25:20.459Z,37.00
2023-05-17T05:25:50.485Z,37.08
2023-05-17T05:26:20.544Z,37.03
2023-05-17T05:26:50.595Z,37.07
2023-05-17T05:27:20.650Z,37.09
2023-05-17T05:27:50.717Z,37.08
2023-05-17T05:28:20.783Z,37.17
2023-05-17T05:28:50.852Z,37.09
2023-05-17T05:29:20.901Z,37.12
2023-05-17T05:29:50.934Z,37.23
2023-05-17T05:30:20.982Z,37.19
2023-05-17T05:30:51.030Z,37.16
2023-05-17T05:31:21.058Z,37.23
2023-05-17T05:31:51.117Z,37.27
2023-05-17T05:32:21.403Z,37.28
2023-05-17T05:32:51.356Z,37.30
2023-05-17T05:33:51.251Z,37.30
2023-05-17T05:34:21.212Z,37.28
2023-05-17T05:34:51.264Z,37.24
2023-05-17T05:35:21.348Z,37.21
2023-05-17T05:35:51.439Z,37.25
2023-05-17T05:36:21.522Z,37.16
2023-05-17T05:36:51.623Z,37.13
2023-05-17T05:37:21.713Z,37.19
2023-05-17T05:37:51.781Z,37.12
2023-05-17T05:38:21.885Z,37.09
2023-05-17T05:38:51.962Z,37.12
2023-05-17T05:39:22.051Z,37.01
2023-05-17T05:39:52.132Z,36.99
2023-05-17T05:40:22.225Z,36.96
2023-05-17T05:40:52.365Z,36.99
2023-05-17T05:41:22.434Z,36.91
2023-05-17T05:41:52.527Z,37.05
2023-05-17T05:42:22.730Z,37.28
2023-05-17T05:42:52.701Z,37.34
2023-05-17T05:43:22.785Z,37.20
2023-05-17T05:43:52.882Z,37.08
2023-05-17T05:44:25.241Z,37.01
2023-05-17T05:44:52.977Z,36.91
2023-05-17T05:45:23.080Z,36.95
2023-05-17T05:45:53.161Z,36.91
2023-05-17T05:46:23.268Z,36.88
2023-05-17T05:46:53.354Z,36.82
2023-05-17T05:47:23.574Z,36.85
2023-05-17T05:47:53.640Z,36.89
2023-05-17T05:48:23.682Z,36.98
2023-05-17T05:48:53.740Z,36.89
2023-05-17T05:49:23.776Z,36.99
2023-05-17T05:49:53.753Z,36.96
2023-05-17T05:50:23.831Z,36.90
2023-05-17T05:50:53.934Z,36.87
2023-05-17T05:51:24.023Z,36.75
2023-05-17T05:51:54.099Z,36.79
2023-05-17T05:52:24.180Z,36.73
2023-05-17T05:52:58.032Z,36.78
2023-05-17T05:53:24.338Z,36.78
2023-05-17T05:53:54.412Z,36.75
2023-05-17T05:54:24.504Z,36.72
2023-05-17T05:54:54.577Z,36.75
2023-05-17T05:55:24.688Z,36.69
2023-05-17T05:55:54.705Z,36.76
2023-05-17T05:56:24.797Z,36.68
2023-05-17T05:56:54.869Z,36.75
2023-05-17T05:57:24.950Z,36.70
2023-05-17T05:57:55.041Z,36.64
2023-05-17T05:58:25.141Z,36.69
2023-05-17T05:58:55.236Z,36.59
2023-05-17T05:59:25.330Z,36.64
2023-05-17T05:59:55.416Z,36.58
2023-05-17T06:00:25.423Z,36.52
2023-05-17T06:00:55.511Z,36.55
2023-05-17T06:01:25.619Z,36.52
2023-05-17T06:01:55.675Z,36.55
2023-05-17T06:02:25.775Z,36.48
2023-05-17T06:02:56.008Z,36.50
2023-05-17T06:03:25.880Z,36.53
2023-05-17T06:04:36.314Z,36.47
2023-05-17T06:04:56.104Z,36.46
2023-05-17T06:05:26.217Z,36.39
2023-05-17T06:05:56.214Z,36.37
2023-05-17T06:06:26.312Z,36.39
2023-05-17T06:06:56.353Z,36.42
2023-05-17T06:07:26.324Z,36.45
2023-05-17T06:07:56.398Z,36.41
2023-05-17T06:08:26.490Z,36.45
2023-05-17T06:08:58.868Z,36.41
2023-05-17T06:09:26.621Z,36.49
2023-05-17T06:09:56.719Z,36.46
2023-05-17T06:10:27.019Z,36.43
2023-05-17T06:10:56.801Z,36.45
2023-05-17T06:11:26.882Z,36.50
2023-05-17T06:11:56.954Z,36.55
2023-05-17T06:12:27.048Z,36.51
2023-05-17T06:12:57.133Z,36.43
2023-05-17T06:13:27.218Z,36.39
2023-05-17T06:13:57.297Z,36.36
2023-05-17T06:14:27.372Z,36.38
2023-05-17T06:14:57.453Z,36.32
2023-05-17T06:15:27.535Z,36.42
2023-05-17T06:15:57.606Z,36.31
2023-05-17T06:16:27.734Z,36.35
2023-05-17T06:16:57.797Z,36.39
2023-05-17T06:17:27.889Z,36.30
2023-05-17T06:17:58.130Z,36.33
2023-05-17T06:18:28.207Z,36.33
2023-05-17T06:19:28.364Z,36.26
2023-05-17T06:19:58.313Z,36.16
2023-05-17T06:20:28.428Z,36.17
2023-05-17T06:20:58.301Z,36.18
2023-05-17T06:21:28.388Z,36.16
2023-05-17T06:21:58.472Z,36.21
2023-05-17T06:22:28.556Z,36.24
2023-05-17T06:22:58.651Z,36.22
2023-05-17T06:23:28.733Z,36.22
2023-05-17T06:23:58.829Z,36.19
2023-05-17T06:24:28.915Z,36.09
2023-05-17T06:24:58.976Z,36.08
2023-05-17T06:25:29.020Z,36.07
2023-05-17T06:25:59.057Z,36.03
2023-05-17T06:26:29.094Z,35.92
2023-05-17T06:26:59.138Z,35.86
2023-05-17T06:27:29.198Z,35.79
2023-05-17T06:27:59.235Z,35.71
2023-05-17T06:28:29.322Z,35.65
2023-05-17T06:28:59.385Z,35.60
2023-05-17T06:29:29.414Z,35.60
2023-05-17T06:29:59.457Z,35.52
2023-05-17T06:30:29.701Z,35.55
2023-05-17T06:30:59.494Z,35.55
2023-05-17T06:31:29.526Z,35.50
2023-05-17T06:31:59.577Z,35.46
2023-05-17T06:32:29.634Z,35.41
2023-05-17T06:32:59.934Z,35.38
2023-05-17T06:33:29.781Z,35.29
2023-05-17T06:33:59.884Z,35.32
2023-05-17T06:34:29.930Z,35.31
2023-05-17T06:35:00.005Z,35.25
2023-05-17T06:35:35.245Z,35.21
2023-05-17T06:37:00.218Z,35.31
2023-05-17T06:37:30.312Z,35.43